createdAt,value
2023-04-30T00:00:19.882Z,0.10
2023-04-30T00:02:47.836Z,0.10
2023-04-30T00:05:16.072Z,0.10
2023-04-30T00:07:44.099Z,0.20
2023-04-30T00:10:13.722Z,0.10
2023-04-30T00:12:41.628Z,0.10
2023-04-30T00:15:10.483Z,0.10
2023-04-30T00:17:38.450Z,0.10
2023-04-30T00:20:08.311Z,0.10
2023-04-30T00:22:36.132Z,0.10
2023-04-30T00:25:04.035Z,0.10
2023-04-30T00:27:33.272Z,0.10
2023-04-30T00:30:01.222Z,0.10
2023-04-30T00:32:29.090Z,0.10
2023-04-30T00:34:57.077Z,0.10
2023-04-30T00:37:25.010Z,0.10
2023-04-30T00:39:53.145Z,0.10
2023-04-30T00:42:21.083Z,0.10
2023-04-30T00:44:50.297Z,0.10
2023-04-30T00:47:18.329Z,0.10
2023-04-30T00:49:46.523Z,0.10
2023-04-30T00:52:14.851Z,0.20
2023-04-30T00:54:42.895Z,0.10
2023-04-30T00:57:13.709Z,0.10
2023-04-30T00:59:42.965Z,0.20
2023-04-30T01:02:12.507Z,0.20
2023-04-30T01:04:40.595Z,0.20
2023-04-30T01:07:08.719Z,0.10
2023-04-30T01:09:36.705Z,0.10
2023-04-30T01:12:11.267Z,0.10
2023-04-30T01:14:47.041Z,0.10
2023-04-30T01:19:47.521Z,0.20
2023-04-30T01:22:26.907Z,0.20
2023-04-30T01:25:12.250Z,0.15
2023-04-30T01:28:02.694Z,0.10
2023-04-30T01:30:32.308Z,0.20
2023-04-30T01:33:00.755Z,0.20
2023-04-30T01:35:45.189Z,0.20
2023-04-30T01:38:26.149Z,0.20
2023-04-30T01:41:00.284Z,0.20
2023-04-30T01:43:39.319Z,0.20
2023-04-30T01:46:19.920Z,0.20
2023-04-30T01:48:56.051Z,0.10
2023-04-30T01:51:31.054Z,0.20
2023-04-30T01:54:04.237Z,0.20
2023-04-30T01:56:35.870Z,0.20
2023-04-30T01:59:06.059Z,0.20
2023-04-30T02:01:34.927Z,0.17
2023-04-30T02:04:03.865Z,0.20
2023-04-30T02:06:31.898Z,0.20
2023-04-30T02:09:03.522Z,0.20
2023-04-30T02:11:31.955Z,0.10
2023-04-30T02:14:00.020Z,0.10
2023-04-30T02:16:29.639Z,0.15
2023-04-30T02:18:57.860Z,0.20
2023-04-30T02:21:25.801Z,0.10
2023-04-30T02:23:53.915Z,0.20
2023-04-30T02:26:22.411Z,0.20
2023-04-30T02:28:50.426Z,0.20
2023-04-30T02:31:18.305Z,0.17
2023-04-30T02:33:48.337Z,0.17
2023-04-30T02:36:16.265Z,0.20
2023-04-30T02:38:44.147Z,0.20
2023-04-30T02:41:12.015Z,0.30
2023-04-30T02:43:40.509Z,0.20
2023-04-30T02:46:08.492Z,0.20
2023-04-30T02:48:36.338Z,0.10
2023-04-30T02:51:06.188Z,0.20
2023-04-30T02:53:34.098Z,0.20
2023-04-30T02:56:02.108Z,0.20
2023-04-30T02:58:30.038Z,0.20
2023-04-30T03:00:58.106Z,0.20
2023-04-30T03:03:26.299Z,0.20
2023-04-30T03:05:56.682Z,0.20
2023-04-30T03:08:26.404Z,0.17
2023-04-30T03:10:54.504Z,0.20
2023-04-30T03:13:22.493Z,0.20
2023-04-30T03:15:50.424Z,0.20
2023-04-30T03:18:18.689Z,0.30
2023-04-30T03:20:46.584Z,0.20
2023-04-30T03:23:14.990Z,0.20
2023-04-30T03:25:44.289Z,0.13
2023-04-30T03:28:12.404Z,0.20
2023-04-30T03:30:40.432Z,0.30
2023-04-30T03:33:08.560Z,0.20
2023-04-30T03:35:36.493Z,0.20
2023-04-30T03:38:04.371Z,0.20
2023-04-30T03:40:32.590Z,0.10
2023-04-30T03:43:02.020Z,0.20
2023-04-30T03:45:29.952Z,0.20
2023-04-30T03:47:57.908Z,0.20
2023-04-30T03:50:26.086Z,0.30
2023-04-30T03:52:54.003Z,0.20
2023-04-30T03:55:22.269Z,0.30
2023-04-30T03:57:50.583Z,0.20
2023-04-30T04:00:20.663Z,0.20
2023-04-30T04:02:52.748Z,0.20
2023-04-30T04:05:20.672Z,0.20
2023-04-30T04:07:48.602Z,0.20
2023-04-30T04:10:16.595Z,0.20
2023-04-30T04:12:44.847Z,0.20
2023-04-30T04:15:13.401Z,0.20
2023-04-30T04:17:43.020Z,0.20
2023-04-30T04:20:14.142Z,0.20
2023-04-30T04:22:43.381Z,0.17
2023-04-30T04:25:11.976Z,0.20
2023-04-30T04:27:40.521Z,0.20
2023-04-30T04:30:09.303Z,0.20
2023-04-30T04:32:42.286Z,0.10
2023-04-30T04:35:12.015Z,0.10
2023-04-30T04:37:40.087Z,0.20
2023-04-30T04:40:09.424Z,0.15
2023-04-30T04:42:38.310Z,0.20
2023-04-30T04:45:07.781Z,0.20
2023-04-30T04:47:36.483Z,0.20
2023-04-30T04:50:04.717Z,0.20
2023-04-30T04:52:34.015Z,0.10
2023-04-30T04:55:01.975Z,0.20
2023-04-30T04:57:29.918Z,0.20
2023-04-30T04:59:58.136Z,0.20
2023-04-30T05:02:26.295Z,0.20
2023-04-30T05:04:54.267Z,0.20
2023-04-30T05:07:22.129Z,0.17
2023-04-30T05:09:51.381Z,0.20
2023-04-30T05:12:19.224Z,0.20
2023-04-30T05:14:47.753Z,0.20
2023-04-30T05:17:15.853Z,0.20
2023-04-30T05:19:43.818Z,0.20
2023-04-30T05:22:11.737Z,0.20
2023-04-30T05:24:39.571Z,0.20
2023-04-30T05:27:08.793Z,0.20
2023-04-30T05:29:36.700Z,0.10
2023-04-30T05:32:04.747Z,0.20
2023-04-30T05:34:32.692Z,0.10
2023-04-30T05:37:01.601Z,0.20
2023-04-30T05:39:29.493Z,0.10
2023-04-30T05:41:57.348Z,0.20
2023-04-30T05:44:26.710Z,0.10
2023-04-30T05:46:54.498Z,0.10
2023-04-30T05:49:22.396Z,0.20
2023-04-30T05:51:50.340Z,0.10
2023-04-30T05:54:18.532Z,0.10
2023-04-30T05:56:46.528Z,0.10
2023-04-30T05:59:14.450Z,0.13
2023-04-30T06:01:43.842Z,0.20
2023-04-30T06:04:12.454Z,0.20
2023-04-30T06:06:40.449Z,0.15
2023-04-30T06:09:08.467Z,0.10
2023-04-30T06:11:37.289Z,0.20
2023-04-30T06:14:05.571Z,0.10
2023-04-30T06:16:33.567Z,0.20
2023-04-30T06:19:03.171Z,0.10
2023-04-30T06:21:31.903Z,0.20
2023-04-30T06:23:59.821Z,0.10
2023-04-30T06:26:28.010Z,0.15
2023-04-30T06:28:56.027Z,0.20
2023-04-30T06:31:24.152Z,0.10
2023-04-30T06:33:52.594Z,0.15
2023-04-30T06:36:21.790Z,0.10
2023-04-30T06:38:49.691Z,0.10
2023-04-30T06:41:17.529Z,0.10
2023-04-30T06:43:45.586Z,0.10
2023-04-30T06:46:15.185Z,0.10
2023-04-30T06:48:43.189Z,0.10
2023-04-30T06:51:11.143Z,0.10
2023-04-30T06:53:40.443Z,0.10
2023-04-30T06:56:09.077Z,0.10
2023-04-30T06:58:36.947Z,0.10
2023-04-30T07:01:05.172Z,0.10
2023-04-30T07:03:33.771Z,0.10
2023-04-30T07:06:01.728Z,0.10
2023-04-30T07:08:29.568Z,0.10
2023-04-30T07:10:58.964Z,0.10
2023-04-30T07:13:26.848Z,0.10
2023-04-30T07:15:55.514Z,0.10
2023-04-30T07:18:23.428Z,0.10
2023-04-30T07:20:51.405Z,0.20
2023-04-30T07:23:19.423Z,0.10
2023-04-30T07:25:47.347Z,0.10
2023-04-30T07:28:16.749Z,0.10
2023-04-30T07:30:44.681Z,0.10
2023-04-30T07:33:14.220Z,0.10
2023-04-30T07:35:42.196Z,0.10
2023-04-30T07:38:10.059Z,0.10
2023-04-30T07:40:38.108Z,0.10
2023-04-30T07:43:06.634Z,0.10
2023-04-30T07:45:37.483Z,0.10
2023-04-30T07:48:05.878Z,0.10
2023-04-30T07:50:35.030Z,0.10
2023-04-30T07:53:03.347Z,0.10
2023-04-30T07:55:31.456Z,0.10
2023-04-30T07:57:59.867Z,0.10
2023-04-30T08:00:29.443Z,0.10
2023-04-30T08:02:59.364Z,0.10
2023-04-30T08:05:27.528Z,0.10
2023-04-30T08:07:55.391Z,0.10
2023-04-30T08:10:23.495Z,0.10
2023-04-30T08:12:51.413Z,0.10
2023-04-30T08:15:21.786Z,0.20
2023-04-30T08:17:50.963Z,0.10
2023-04-30T08:20:20.495Z,0.10
2023-04-30T08:22:48.515Z,0.10
2023-04-30T08:25:16.379Z,0.10
2023-04-30T08:27:44.251Z,0.10
2023-04-30T08:30:12.825Z,0.20
2023-04-30T08:32:41.471Z,0.10
2023-04-30T08:35:10.652Z,0.10
2023-04-30T08:37:40.004Z,0.00
2023-04-30T08:40:11.645Z,0.10
2023-04-30T08:42:47.363Z,0.05
2023-04-30T08:45:16.276Z,0.00
2023-04-30T08:47:46.368Z,0.00
2023-04-30T08:50:14.392Z,0.00
2023-04-30T08:52:44.724Z,0.00
2023-04-30T08:55:12.829Z,0.00
2023-04-30T08:57:40.711Z,0.00
2023-04-30T09:00:09.806Z,0.00
2023-04-30T09:02:41.742Z,0.00
2023-04-30T09:05:12.558Z,0.00
2023-04-30T09:08:01.199Z,0.00
2023-04-30T09:10:34.584Z,0.00
2023-04-30T09:13:03.962Z,0.00
2023-04-30T09:15:32.890Z,0.00
2023-04-30T09:18:08.981Z,0.00
2023-04-30T09:20:37.220Z,0.00
2023-04-30T09:23:11.473Z,0.00
2023-04-30T09:25:40.447Z,0.00
2023-04-30T09:28:10.407Z,0.00
2023-04-30T09:30:39.220Z,0.00
2023-04-30T09:33:10.771Z,0.00
2023-04-30T09:35:41.736Z,0.00
2023-04-30T09:38:27.543Z,0.00
2023-04-30T09:40:55.454Z,0.00
2023-04-30T09:43:23.420Z,0.00
2023-04-30T09:45:51.649Z,0.00
2023-04-30T09:48:22.562Z,0.00
2023-04-30T09:50:51.163Z,0.00
2023-04-30T09:53:21.161Z,0.00
2023-04-30T09:55:51.375Z,0.00
2023-04-30T09:58:20.678Z,0.00
2023-04-30T10:00:51.463Z,0.00
2023-04-30T10:03:21.593Z,0.00
2023-04-30T10:05:52.109Z,0.00
2023-04-30T10:08:28.442Z,0.00
2023-04-30T10:11:01.249Z,0.00
2023-04-30T10:13:32.867Z,0.00
2023-04-30T10:16:08.564Z,0.00
2023-04-30T10:21:12.088Z,0.00
2023-04-30T10:23:43.896Z,0.00
2023-04-30T10:26:12.436Z,0.00
2023-04-30T10:28:40.911Z,0.00
2023-04-30T10:31:10.827Z,0.00
2023-04-30T10:33:49.918Z,0.00
2023-04-30T10:36:27.851Z,0.00
2023-04-30T10:38:57.917Z,0.00
2023-04-30T10:41:27.981Z,0.00
2023-04-30T10:43:59.503Z,0.00
2023-04-30T10:46:29.500Z,0.00
2023-04-30T10:48:57.392Z,0.00
2023-04-30T10:51:25.532Z,0.00
2023-04-30T10:53:55.700Z,0.00
2023-04-30T10:56:32.887Z,0.00
2023-04-30T10:59:02.380Z,0.00
2023-04-30T11:01:31.230Z,0.08
2023-04-30T11:04:06.865Z,0.00
2023-04-30T11:06:50.167Z,0.00
2023-04-30T11:09:18.101Z,0.05
2023-04-30T11:11:47.559Z,0.10
2023-04-30T11:14:22.927Z,0.00
2023-04-30T11:16:51.346Z,0.00
2023-04-30T11:19:24.877Z,0.00
2023-04-30T11:22:17.322Z,0.00
2023-04-30T11:25:05.738Z,0.00
2023-04-30T11:27:36.198Z,0.00
2023-04-30T11:30:10.656Z,0.00
2023-04-30T11:32:39.847Z,0.00
2023-04-30T11:35:09.000Z,0.00
2023-04-30T11:37:38.651Z,0.10
2023-04-30T11:40:08.738Z,0.00
2023-04-30T11:42:39.439Z,0.00
2023-04-30T11:45:09.400Z,0.00
2023-04-30T11:47:41.722Z,0.00
2023-04-30T11:50:10.732Z,0.00
2023-04-30T11:52:39.072Z,0.00
2023-04-30T11:55:09.147Z,0.00
2023-04-30T11:57:42.836Z,0.00
2023-04-30T12:00:15.336Z,0.00
2023-04-30T12:02:44.573Z,0.00
2023-04-30T12:05:17.622Z,0.00
2023-04-30T12:07:50.350Z,0.00
2023-04-30T12:10:21.049Z,0.00
2023-04-30T12:12:52.959Z,0.00
2023-04-30T12:15:26.452Z,0.00
2023-04-30T12:17:55.986Z,0.00
2023-04-30T12:20:29.229Z,0.00
2023-04-30T12:22:57.871Z,0.00
2023-04-30T12:25:29.692Z,0.00
2023-04-30T12:28:00.679Z,0.00
2023-04-30T12:30:28.841Z,0.00
2023-04-30T12:32:59.775Z,0.00
2023-04-30T12:35:31.138Z,0.00
2023-04-30T12:38:04.448Z,0.00
2023-04-30T12:40:33.171Z,0.00
2023-04-30T12:43:03.787Z,0.00
2023-04-30T12:45:51.520Z,0.00
2023-04-30T12:48:21.357Z,0.00
2023-04-30T12:50:52.464Z,0.00
2023-04-30T12:53:20.769Z,0.00
2023-04-30T12:56:13.753Z,0.00
2023-04-30T12:58:45.577Z,0.00
2023-04-30T13:01:15.121Z,0.00
2023-04-30T13:03:43.325Z,0.00
2023-04-30T13:06:11.691Z,0.00
2023-04-30T13:08:50.387Z,0.00
2023-04-30T13:11:27.782Z,0.00
2023-04-30T13:13:57.268Z,0.00
2023-04-30T13:16:26.313Z,0.00
2023-04-30T13:18:54.568Z,0.00
2023-04-30T13:21:22.653Z,0.00
2023-04-30T13:23:54.329Z,0.00
2023-04-30T13:26:23.734Z,0.00
2023-04-30T13:28:51.950Z,0.00
2023-04-30T13:31:22.493Z,0.00
2023-04-30T13:33:51.090Z,0.00
2023-04-30T13:36:19.030Z,0.00
2023-04-30T13:38:47.057Z,0.00
2023-04-30T13:41:15.122Z,0.00
2023-04-30T13:43:44.695Z,0.00
2023-04-30T13:46:12.855Z,0.00
2023-04-30T13:48:42.733Z,0.00
2023-04-30T13:51:10.894Z,0.00
2023-04-30T13:53:38.821Z,0.00
2023-04-30T13:56:07.441Z,0.00
2023-04-30T13:58:35.378Z,0.00
2023-04-30T14:01:03.710Z,0.00
2023-04-30T14:03:32.056Z,0.00
2023-04-30T14:06:01.807Z,0.00
2023-04-30T14:08:31.090Z,0.00
2023-04-30T14:10:59.095Z,0.00
2023-04-30T14:13:27.785Z,0.00
2023-04-30T14:15:56.192Z,0.00
2023-04-30T14:18:24.258Z,0.00
2023-04-30T14:20:52.285Z,0.00
2023-04-30T14:23:21.549Z,0.00
2023-04-30T14:25:49.659Z,0.00
2023-04-30T14:28:18.066Z,0.00
2023-04-30T14:30:46.013Z,0.00
2023-04-30T14:33:14.758Z,0.00
2023-04-30T14:35:42.710Z,0.00
2023-04-30T14:38:10.608Z,0.00
2023-04-30T14:40:39.877Z,0.00
2023-04-30T14:43:07.932Z,0.00
2023-04-30T14:45:36.057Z,0.00
2023-04-30T14:48:05.705Z,0.00
2023-04-30T14:50:34.024Z,0.00
2023-04-30T14:53:02.047Z,0.00
2023-04-30T14:55:30.306Z,0.00
2023-04-30T14:58:00.983Z,0.00
2023-04-30T15:00:29.164Z,0.00
2023-04-30T15:02:57.284Z,0.00
2023-04-30T15:05:26.213Z,0.00
2023-04-30T15:07:54.176Z,0.00
2023-04-30T15:10:22.291Z,0.00
2023-04-30T15:12:50.325Z,0.00
2023-04-30T15:15:22.713Z,0.00
2023-04-30T15:17:50.722Z,0.00
2023-04-30T15:20:18.763Z,0.00
2023-04-30T15:22:46.938Z,0.00
2023-04-30T15:25:15.533Z,0.00
2023-04-30T15:27:43.642Z,0.00
2023-04-30T15:30:12.075Z,0.00
2023-04-30T15:32:41.674Z,0.00
2023-04-30T15:35:10.713Z,0.00
2023-04-30T15:37:38.638Z,0.00
2023-04-30T15:40:08.485Z,0.00
2023-04-30T15:42:37.427Z,0.00
2023-04-30T15:45:06.026Z,0.00
2023-04-30T15:47:34.893Z,0.00
2023-04-30T15:50:04.576Z,0.00
2023-04-30T15:52:32.456Z,0.00
2023-04-30T15:55:00.715Z,0.00
2023-04-30T15:57:28.698Z,0.00
2023-04-30T15:59:58.308Z,0.00
2023-04-30T16:02:26.417Z,0.00
2023-04-30T16:04:55.467Z,0.00
2023-04-30T16:07:25.196Z,0.00
2023-04-30T16:09:53.383Z,0.00
2023-04-30T16:12:22.632Z,0.00
2023-04-30T16:14:51.252Z,0.00
2023-04-30T16:17:19.387Z,0.00
2023-04-30T16:19:47.407Z,0.00
2023-04-30T16:22:17.130Z,0.00
2023-04-30T16:24:46.392Z,0.00
2023-04-30T16:27:14.317Z,0.00
2023-04-30T16:29:42.388Z,0.00
2023-04-30T16:32:10.454Z,0.00
2023-04-30T16:34:38.891Z,0.00
2023-04-30T16:37:06.771Z,0.00
2023-04-30T16:39:34.994Z,0.00
2023-04-30T16:42:04.463Z,0.00
2023-04-30T16:44:32.358Z,0.00
2023-04-30T16:47:00.335Z,0.00
2023-04-30T16:49:28.213Z,0.00
2023-04-30T16:51:56.339Z,0.00
2023-04-30T16:54:24.588Z,0.00
2023-04-30T16:56:52.635Z,0.00
2023-04-30T16:59:25.332Z,0.00
2023-04-30T17:01:56.536Z,0.00
2023-04-30T17:04:24.836Z,0.10
2023-04-30T17:06:53.033Z,0.00
2023-04-30T17:09:21.164Z,0.00
2023-04-30T17:11:49.148Z,0.00
2023-04-30T17:14:17.697Z,0.00
2023-04-30T17:16:47.121Z,0.10
2023-04-30T17:19:15.562Z,0.00
2023-04-30T17:21:43.645Z,0.00
2023-04-30T17:24:11.653Z,0.00
2023-04-30T17:26:39.870Z,0.00
2023-04-30T17:29:08.050Z,0.10
2023-04-30T17:31:36.286Z,0.10
2023-04-30T17:34:05.733Z,0.00
2023-04-30T17:36:34.924Z,0.08
2023-04-30T17:39:05.682Z,0.10
2023-04-30T17:41:33.742Z,0.00
2023-04-30T17:44:03.264Z,0.00
2023-04-30T17:46:31.380Z,0.10
2023-04-30T17:49:01.539Z,0.10
2023-04-30T17:51:32.049Z,0.10
2023-04-30T17:54:00.315Z,0.08
2023-04-30T17:56:29.981Z,0.10
2023-04-30T17:58:58.351Z,0.10
2023-04-30T18:01:27.079Z,0.08
2023-04-30T18:03:55.498Z,0.10
2023-04-30T18:06:28.097Z,0.10
2023-04-30T18:09:01.125Z,0.10
2023-04-30T18:11:29.237Z,0.10
2023-04-30T18:13:57.128Z,0.10
2023-04-30T18:16:25.107Z,0.10
2023-04-30T18:18:53.076Z,0.10
2023-04-30T18:21:21.422Z,0.00
2023-04-30T18:23:49.981Z,0.10
2023-04-30T18:26:24.186Z,0.10
2023-04-30T18:28:53.245Z,0.10
2023-04-30T18:31:21.572Z,0.10
2023-04-30T18:33:49.752Z,0.10
2023-04-30T18:36:18.690Z,0.10
2023-04-30T18:38:46.730Z,0.10
2023-04-30T18:41:14.825Z,0.10
2023-04-30T18:43:44.865Z,0.10
2023-04-30T18:46:12.904Z,0.10
2023-04-30T18:48:40.789Z,0.10
2023-04-30T18:51:08.732Z,0.10
2023-04-30T18:53:37.918Z,0.10
2023-04-30T18:56:06.489Z,0.20
2023-04-30T18:58:34.999Z,0.10
2023-04-30T19:01:04.612Z,0.20
2023-04-30T19:03:34.144Z,0.10
2023-04-30T19:06:02.596Z,0.10
2023-04-30T19:08:30.659Z,0.20
2023-04-30T19:10:58.785Z,0.20
2023-04-30T19:13:26.737Z,0.20
2023-04-30T19:15:55.824Z,0.10
2023-04-30T19:18:25.189Z,0.10
2023-04-30T19:20:59.556Z,0.20
2023-04-30T19:23:30.717Z,0.20
2023-04-30T19:25:58.918Z,0.20
2023-04-30T19:28:27.045Z,0.10
2023-04-30T19:30:56.040Z,0.13
2023-04-30T19:33:27.034Z,0.20
2023-04-30T19:35:57.764Z,0.20
2023-04-30T19:38:25.859Z,0.20
2023-04-30T19:40:55.692Z,0.20
2023-04-30T19:43:24.298Z,0.20
2023-04-30T19:45:55.202Z,0.20
2023-04-30T19:48:26.063Z,0.17
2023-04-30T19:50:54.954Z,0.20
2023-04-30T19:53:25.554Z,0.10
2023-04-30T19:55:59.803Z,0.20
2023-04-30T19:58:27.707Z,0.20
2023-04-30T20:00:55.873Z,0.20
2023-04-30T20:03:25.925Z,0.20
2023-04-30T20:05:54.091Z,0.20
2023-04-30T20:08:22.876Z,0.20
2023-04-30T20:10:50.821Z,0.20
2023-04-30T20:13:18.819Z,0.20
2023-04-30T20:15:47.338Z,0.20
2023-04-30T20:18:15.451Z,0.20
2023-04-30T20:20:44.861Z,0.20
2023-04-30T20:23:14.377Z,0.20
2023-04-30T20:25:45.288Z,0.20
2023-04-30T20:28:14.156Z,0.20
2023-04-30T20:30:43.391Z,0.20
2023-04-30T20:33:11.935Z,0.10
2023-04-30T20:35:41.400Z,0.30
2023-04-30T20:38:10.846Z,0.20
2023-04-30T20:40:40.498Z,0.10
2023-04-30T20:43:10.246Z,0.20
2023-04-30T20:45:38.193Z,0.20
2023-04-30T20:48:07.398Z,0.20
2023-04-30T20:50:35.470Z,0.17
2023-04-30T20:53:03.588Z,0.20
2023-04-30T20:55:32.828Z,0.20
2023-04-30T20:58:00.804Z,0.20
2023-04-30T21:00:28.999Z,0.20
2023-04-30T21:02:57.205Z,0.20
2023-04-30T21:05:25.207Z,0.20
2023-04-30T21:07:53.264Z,0.20
2023-04-30T21:10:21.554Z,0.20
2023-04-30T21:12:50.800Z,0.30
2023-04-30T21:15:18.782Z,0.15
2023-04-30T21:17:46.941Z,0.20
2023-04-30T21:20:14.993Z,0.20
2023-04-30T21:22:42.880Z,0.20
2023-04-30T21:25:12.254Z,0.25
2023-04-30T21:27:40.435Z,0.28
2023-04-30T21:30:10.810Z,0.25
2023-04-30T21:32:39.415Z,0.20
2023-04-30T21:35:08.114Z,0.20
2023-04-30T21:37:36.394Z,0.28
2023-04-30T21:40:04.757Z,0.15
2023-04-30T21:42:33.848Z,0.20
2023-04-30T21:45:01.975Z,0.20
2023-04-30T21:47:31.706Z,0.30
2023-04-30T21:49:59.753Z,0.25
2023-04-30T21:52:27.694Z,0.20
2023-04-30T21:54:55.785Z,0.20
2023-04-30T21:57:24.334Z,0.20
2023-04-30T21:59:52.202Z,0.20
2023-04-30T22:02:24.305Z,0.20
2023-04-30T22:04:55.466Z,0.20
2023-04-30T22:07:23.958Z,0.20
2023-04-30T22:09:52.776Z,0.20
2023-04-30T22:12:21.614Z,0.28
2023-04-30T22:14:53.187Z,0.20
2023-04-30T22:17:21.857Z,0.20
2023-04-30T22:19:49.815Z,0.30
2023-04-30T22:22:19.082Z,0.20
2023-04-30T22:24:47.264Z,0.20
2023-04-30T22:27:15.419Z,0.20
2023-04-30T22:29:43.781Z,0.20
2023-04-30T22:32:12.161Z,0.17
2023-04-30T22:34:41.874Z,0.30
2023-04-30T22:37:11.418Z,0.20
2023-04-30T22:39:40.889Z,0.22
2023-04-30T22:42:10.119Z,0.20
2023-04-30T22:44:38.726Z,0.20
2023-04-30T22:47:06.966Z,0.30
2023-04-30T22:49:37.212Z,0.20
2023-04-30T22:52:05.347Z,0.20
2023-04-30T22:54:33.235Z,0.20
2023-04-30T22:57:03.088Z,0.28
2023-04-30T22:59:31.009Z,0.28
2023-04-30T23:01:59.768Z,0.30
2023-04-30T23:04:28.394Z,0.22
2023-04-30T23:06:57.203Z,0.20
2023-04-30T23:09:25.092Z,0.30
2023-04-30T23:11:52.917Z,0.20
2023-04-30T23:14:22.147Z,0.28
2023-04-30T23:16:49.986Z,0.30
2023-04-30T23:19:17.917Z,0.20
2023-04-30T23:21:45.829Z,0.30
2023-04-30T23:24:13.689Z,0.20
2023-04-30T23:26:41.582Z,0.30
2023-04-30T23:29:09.395Z,0.20
2023-04-30T23:31:38.922Z,0.30
2023-04-30T23:34:06.758Z,0.30
2023-04-30T23:36:34.725Z,0.20
2023-04-30T23:39:02.620Z,0.30
2023-04-30T23:41:30.577Z,0.30
2023-04-30T23:43:58.458Z,0.20
2023-04-30T23:46:26.405Z,0.30
2023-04-30T23:48:55.771Z,0.30
2023-04-30T23:51:23.683Z,0.20
2023-04-30T23:53:51.612Z,0.20
2023-04-30T23:56:19.497Z,0.30
2023-04-30T23:58:47.367Z,0.30
